Time;durP1;ratioP1;P1;durP2;ratioP2;P2;SDS_P1;SDS_P2;PMS_P1;PMS_P2;Temp;Humidity;BMP_temperature;BMP_pressure;BME280_temperature;BME280_humidity;BME280_pressure;Samples;Min_cycle;Max_cycle;Signal;HPM_P1;HPM_P2
2021/03/26 00:00:36;;;;;;;16.67;10.20;;;6.70;99.90;;;;;;5057871;28;20410;-81
2021/03/26 00:03:05;;;;;;;13.47;9.20;;;6.60;99.90;;;;;;5057706;28;20407;-79
2021/03/26 00:05:35;;;;;;;25.53;12.07;;;6.50;99.90;;;;;;5055906;28;20454;-81
2021/03/26 00:08:01;;;;;;;18.20;10.70;;;6.50;99.90;;;;;;5056131;28;20431;-81
2021/03/26 00:10:27;;;;;;;13.87;9.73;;;6.40;99.90;;;;;;5056514;28;20395;-80
2021/03/26 00:12:53;;;;;;;14.13;9.17;;;6.40;99.90;;;;;;5056692;28;20414;-80
2021/03/26 00:15:19;;;;;;;15.13;8.83;;;6.30;99.90;;;;;;5056330;28;20167;-80
2021/03/26 00:17:45;;;;;;;13.67;8.97;;;6.40;99.90;;;;;;5057396;28;20195;-81
2021/03/26 00:20:11;;;;;;;11.20;10.03;;;6.30;99.90;;;;;;5057160;28;20402;-80
2021/03/26 00:22:37;;;;;;;14.60;10.10;;;6.40;99.90;;;;;;5057862;28;20164;-81
2021/03/26 00:25:05;;;;;;;15.60;9.07;;;6.50;99.90;;;;;;5057209;28;20446;-81
2021/03/26 00:27:31;;;;;;;17.10;9.80;;;6.50;99.90;;;;;;5057579;28;20604;-79
2021/03/26 00:29:57;;;;;;;16.87;8.97;;;6.50;99.90;;;;;;5057013;28;20791;-79
2021/03/26 00:32:23;;;;;;;14.10;9.57;;;6.50;99.90;;;;;;5058179;28;20399;-80
2021/03/26 00:34:50;;;;;;;12.73;8.57;;;6.40;99.90;;;;;;5057218;28;20170;-79
2021/03/26 00:37:17;;;;;;;15.70;9.97;;;6.40;99.90;;;;;;5057989;28;20164;-79
2021/03/26 00:39:47;;;;;;;18.90;9.43;;;6.40;99.90;;;;;;5058058;28;20824;-81
2021/03/26 00:42:13;;;;;;;14.53;10.20;;;6.40;99.90;;;;;;5057669;28;20540;-80
2021/03/26 00:44:39;;;;;;;14.17;9.63;;;6.40;99.90;;;;;;5057532;28;21015;-81
2021/03/26 00:47:05;;;;;;;14.80;9.57;;;6.30;99.90;;;;;;5058582;28;20449;-79
2021/03/26 00:49:31;;;;;;;15.43;9.23;;;6.20;99.90;;;;;;5061678;28;20377;-79
2021/03/26 00:51:57;;;;;;;12.97;10.50;;;6.10;99.90;;;;;;5060725;28;20789;-79
2021/03/26 00:54:23;;;;;;;16.47;11.00;;;6.10;99.90;;;;;;5061354;28;20203;-79
2021/03/26 00:56:49;;;;;;;18.10;10.73;;;6.20;99.90;;;;;;5058778;28;20887;-80
2021/03/26 00:59:15;;;;;;;14.60;10.57;;;6.30;99.90;;;;;;5057359;28;20160;-80
2021/03/26 01:01:40;;;;;;;13.87;9.80;;;6.30;99.90;;;;;;5057905;28;20407;-80
2021/03/26 01:04:07;;;;;;;20.73;11.00;;;6.40;99.90;;;;;;5060768;28;20211;-82
2021/03/26 01:06:32;;;;;;;12.37;9.53;;;6.40;99.90;;;;;;5059580;28;20619;-82
2021/03/26 01:08:59;;;;;;;13.53;9.13;;;6.50;99.90;;;;;;5061360;28;20434;-82
2021/03/26 01:11:29;;;;;;;12.30;8.53;;;6.50;99.90;;;;;;5061296;28;20508;-82
2021/03/26 01:13:56;;;;;;;14.07;9.60;;;6.40;99.90;;;;;;5061103;28;20401;-82
2021/03/26 01:16:23;;;;;;;13.43;10.23;;;6.30;99.90;;;;;;5061968;28;20399;-82
2021/03/26 01:18:49;;;;;;;13.90;9.27;;;6.50;99.90;;;;;;5061740;28;20433;-83
2021/03/26 01:21:20;;;;;;;12.17;9.30;;;6.30;99.90;;;;;;5061897;28;20402;-82
2021/03/26 01:23:46;;;;;;;20.40;11.60;;;6.40;99.90;;;;;;5061055;28;20391;-82
2021/03/26 01:26:12;;;;;;;23.13;10.03;;;6.20;99.90;;;;;;5060571;28;20477;-81
2021/03/26 01:28:38;;;;;;;17.97;9.70;;;6.10;99.90;;;;;;5060554;28;20910;-80
2021/03/26 01:31:05;;;;;;;21.83;10.70;;;6.20;99.90;;;;;;5059117;28;20402;-81
2021/03/26 01:33:31;;;;;;;17.33;11.47;;;6.20;99.90;;;;;;5060262;28;20163;-80
2021/03/26 01:35:58;;;;;;;14.37;10.63;;;5.90;99.90;;;;;;5060404;28;20410;-81
2021/03/26 01:38:26;;;;;;;15.20;9.87;;;6.00;99.90;;;;;;5060560;28;20759;-81
2021/03/26 01:40:57;;;;;;;17.90;10.33;;;6.00;99.90;;;;;;5060222;28;20410;-81
2021/03/26 01:43:29;;;;;;;26.67;10.73;;;6.00;99.90;;;;;;5059968;28;20496;-81
2021/03/26 01:45:56;;;;;;;13.70;9.63;;;6.00;99.90;;;;;;5059977;28;20453;-81
2021/03/26 01:48:29;;;;;;;16.37;10.73;;;6.10;99.90;;;;;;5070840;28;20458;-82
2021/03/26 01:50:56;;;;;;;18.90;10.10;;;6.10;99.90;;;;;;5068193;28;20402;-82
2021/03/26 01:53:23;;;;;;;17.40;9.00;;;6.10;99.90;;;;;;5059307;28;20406;-82
2021/03/26 01:55:50;;;;;;;10.63;9.00;;;6.10;99.90;;;;;;5060595;28;20407;-82
2021/03/26 01:58:20;;;;;;;23.20;10.30;;;6.00;99.90;;;;;;5060207;28;20438;-82
2021/03/26 02:00:51;;;;;;;12.90;8.57;;;5.80;99.90;;;;;;5060522;28;20552;-82
2021/03/26 02:03:26;;;;;;;14.80;8.90;;;5.80;99.90;;;;;;5059964;28;20399;-82
2021/03/26 02:05:54;;;;;;;15.53;9.60;;;5.60;99.90;;;;;;5060020;28;20441;-82
2021/03/26 02:08:26;;;;;;;22.30;10.30;;;5.50;99.90;;;;;;5059738;28;20434;-81
2021/03/26 02:10:53;;;;;;;20.33;10.17;;;5.60;99.90;;;;;;5060153;28;20395;-81
2021/03/26 02:13:26;;;;;;;24.53;12.70;;;5.50;99.90;;;;;;5059535;28;20402;-81
2021/03/26 02:15:53;;;;;;;16.77;9.17;;;5.60;99.90;;;;;;5059515;28;20391;-81
2021/03/26 02:18:23;;;;;;;16.70;9.73;;;5.60;99.90;;;;;;5059591;28;20430;-81
2021/03/26 02:20:55;;;;;;;18.00;9.07;;;5.60;99.90;;;;;;5059548;28;20406;-82
2021/03/26 02:23:25;;;;;;;17.93;10.33;;;5.50;99.90;;;;;;5059395;28;20483;-82
2021/03/26 02:25:52;;;;;;;20.00;9.50;;;5.70;99.90;;;;;;5059030;28;20421;-81
2021/03/26 02:28:19;;;;;;;18.17;8.60;;;5.70;99.90;;;;;;5059349;28;20449;-81
2021/03/26 02:30:48;;;;;;;13.40;8.50;;;5.70;99.90;;;;;;5059739;28;20438;-81
2021/03/26 02:33:15;;;;;;;19.97;9.53;;;5.80;99.90;;;;;;5059559;28;20955;-81
2021/03/26 02:35:44;;;;;;;21.30;9.33;;;5.70;99.90;;;;;;5058709;28;20403;-81
2021/03/26 02:38:24;;;;;;;16.50;9.20;;;5.70;99.90;;;;;;5059080;28;20378;-81
2021/03/26 02:41:12;;;;;;;11.60;8.80;;;5.60;99.90;;;;;;5058175;28;20434;-82
2021/03/26 02:43:58;;;;;;;24.07;10.37;;;5.50;99.90;;;;;;5058594;28;20561;-81
2021/03/26 02:46:37;;;;;;;15.80;9.63;;;5.40;99.90;;;;;;5058737;28;20440;-81
2021/03/26 02:49:18;;;;;;;20.57;10.20;;;5.40;99.90;;;;;;5058889;28;20414;-81
2021/03/26 02:51:57;;;;;;;14.23;9.07;;;5.20;99.90;;;;;;5058788;28;20537;-81
2021/03/26 02:54:39;;;;;;;13.13;8.30;;;5.20;99.90;;;;;;5058482;28;20468;-81
2021/03/26 02:57:11;;;;;;;9.30;7.40;;;5.20;99.90;;;;;;5059103;28;20399;-81
2021/03/26 02:59:50;;;;;;;17.53;8.83;;;5.20;99.90;;;;;;5058958;28;20403;-80
2021/03/26 03:02:18;;;;;;;24.70;10.10;;;5.20;99.90;;;;;;5059067;28;20506;-81
2021/03/26 03:05:01;;;;;;;21.07;11.17;;;5.20;99.90;;;;;;5058946;28;20449;-82
2021/03/26 03:07:32;;;;;;;13.73;9.37;;;5.20;99.90;;;;;;5059259;28;20419;-81
2021/03/26 03:10:18;;;;;;;14.00;8.80;;;5.40;99.90;;;;;;5058545;28;20876;-80
2021/03/26 03:12:45;;;;;;;10.90;7.77;;;5.30;99.90;;;;;;5058378;28;20455;-81
2021/03/26 03:15:19;;;;;;;21.73;10.63;;;5.10;99.90;;;;;;5057050;28;20402;-81
2021/03/26 03:18:08;;;;;;;16.23;8.37;;;4.90;99.90;;;;;;5058838;28;20823;-81
2021/03/26 03:20:41;;;;;;;17.47;9.37;;;4.90;99.90;;;;;;5058509;28;20415;-81
2021/03/26 03:23:26;;;;;;;20.97;10.70;;;5.00;99.90;;;;;;5058186;28;20425;-81
2021/03/26 03:25:57;;;;;;;15.67;9.27;;;5.10;99.90;;;;;;5058041;28;20531;-81
2021/03/26 03:28:37;;;;;;;16.20;8.93;;;5.10;99.90;;;;;;5058433;28;20416;-81
2021/03/26 03:31:26;;;;;;;28.07;11.70;;;5.10;99.90;;;;;;5057754;28;20620;-81
2021/03/26 03:34:13;;;;;;;12.30;7.97;;;5.10;99.90;;;;;;5058023;28;20399;-81
2021/03/26 03:37:12;;;;;;;14.33;8.20;;;5.10;99.90;;;;;;5058085;28;20437;-82
2021/03/26 03:40:02;;;;;;;16.73;8.80;;;5.10;99.90;;;;;;5058464;28;20505;-81
2021/03/26 03:42:51;;;;;;;15.27;9.27;;;5.00;99.90;;;;;;5057430;28;20454;-82
2021/03/26 03:45:26;;;;;;;19.70;10.20;;;5.10;99.90;;;;;;5058413;28;20887;-81
2021/03/26 03:48:00;;;;;;;16.80;10.80;;;5.00;99.90;;;;;;5057995;28;20384;-82
2021/03/26 03:50:40;;;;;;;14.93;11.00;;;5.10;99.90;;;;;;5058529;28;20403;-81
2021/03/26 03:53:19;;;;;;;22.00;9.90;;;5.10;99.90;;;;;;5058532;28;20745;-82
2021/03/26 03:55:54;;;;;;;17.47;9.67;;;5.10;99.90;;;;;;5057946;28;20795;-81
2021/03/26 03:58:28;;;;;;;17.20;9.73;;;5.10;99.90;;;;;;5057843;28;20850;-82
2021/03/26 04:01:01;;;;;;;13.10;9.60;;;4.90;99.90;;;;;;5058305;28;20399;-80
2021/03/26 04:03:50;;;;;;;16.90;9.63;;;5.10;99.90;;;;;;5040272;28;20395;-81
2021/03/26 04:06:20;;;;;;;15.50;8.53;;;5.00;99.90;;;;;;5057076;28;20436;-82
2021/03/26 04:08:53;;;;;;;13.40;8.63;;;5.10;99.90;;;;;;5057817;28;20445;-82
2021/03/26 04:11:27;;;;;;;17.77;11.60;;;5.10;99.90;;;;;;5058015;28;20395;-82
2021/03/26 04:14:04;;;;;;;18.17;10.20;;;5.00;99.90;;;;;;5057973;28;20470;-81
2021/03/26 04:16:30;;;;;;;21.30;9.70;;;4.90;99.90;;;;;;5058186;28;20398;-82
2021/03/26 04:19:17;;;;;;;18.03;8.13;;;4.60;99.90;;;;;;5057549;28;20411;-82
2021/03/26 04:21:45;;;;;;;15.87;9.10;;;4.50;99.90;;;;;;5058304;28;20459;-81
2021/03/26 04:24:24;;;;;;;11.67;8.20;;;4.40;99.90;;;;;;5063755;28;20462;-81
2021/03/26 04:26:59;;;;;;;17.10;10.43;;;4.40;99.90;;;;;;5070322;28;20569;-80
2021/03/26 04:29:42;;;;;;;13.43;10.40;;;4.30;99.90;;;;;;5068999;28;20391;-79
2021/03/26 04:32:12;;;;;;;20.47;11.67;;;4.30;99.90;;;;;;5065498;28;20742;-79
2021/03/26 04:34:40;;;;;;;15.53;9.30;;;4.40;99.90;;;;;;5065138;28;20391;-79
2021/03/26 04:37:22;;;;;;;15.90;10.07;;;4.50;99.90;;;;;;5065829;28;20401;-78
2021/03/26 04:39:56;;;;;;;15.50;9.57;;;4.60;99.90;;;;;;5069626;28;20466;-78
2021/03/26 04:42:30;;;;;;;14.70;9.13;;;4.60;99.90;;;;;;5063827;28;20457;-81
2021/03/26 04:45:18;;;;;;;17.57;10.87;;;4.90;99.90;;;;;;5062621;28;20449;-81
2021/03/26 04:47:57;;;;;;;18.73;8.90;;;4.80;99.90;;;;;;5062845;28;20441;-81
2021/03/26 04:50:29;;;;;;;19.17;11.93;;;4.90;99.90;;;;;;5063516;28;20410;-81
2021/03/26 04:53:04;;;;;;;15.60;10.23;;;4.70;99.90;;;;;;5061139;28;20395;-81
2021/03/26 04:55:36;;;;;;;16.07;8.37;;;4.70;99.90;;;;;;5063212;28;20398;-81
2021/03/26 04:58:16;;;;;;;17.23;10.75;;;4.50;99.90;;;;;;5062914;28;20430;-81
2021/03/26 05:00:47;;;;;;;16.53;9.63;;;4.40;99.90;;;;;;5061276;28;20605;-81
2021/03/26 05:03:20;;;;;;;19.37;9.20;;;4.40;99.90;;;;;;5061685;28;20403;-80
2021/03/26 05:05:55;;;;;;;16.00;8.90;;;4.20;99.90;;;;;;5060681;28;20439;-80
2021/03/26 05:08:23;;;;;;;21.63;10.20;;;4.30;99.90;;;;;;5061712;28;20421;-82
2021/03/26 05:10:52;;;;;;;18.07;9.67;;;4.20;99.90;;;;;;5061539;28;20421;-82
2021/03/26 05:13:27;;;;;;;15.03;9.10;;;4.00;99.90;;;;;;5060095;28;20399;-81
2021/03/26 05:16:05;;;;;;;12.23;8.43;;;4.00;99.90;;;;;;5061423;28;20398;-82
2021/03/26 05:18:47;;;;;;;14.67;8.37;;;4.10;99.90;;;;;;5061094;28;20859;-82
2021/03/26 05:21:20;;;;;;;13.20;8.63;;;4.10;99.90;;;;;;5061241;28;20406;-82
2021/03/26 05:23:51;;;;;;;11.80;9.17;;;4.00;99.90;;;;;;5061316;28;20493;-81
2021/03/26 05:26:18;;;;;;;13.10;9.53;;;4.10;99.90;;;;;;5061087;28;20482;-81
2021/03/26 05:28:46;;;;;;;15.47;9.57;;;4.10;99.90;;;;;;5061005;28;20826;-81
2021/03/26 05:31:43;;;;;;;13.10;10.17;;;4.10;99.90;;;;;;5061642;28;20482;-81
2021/03/26 05:34:17;;;;;;;22.77;9.33;;;4.30;99.90;;;;;;5061499;28;20499;-82
2021/03/26 05:36:54;;;;;;;25.37;10.40;;;4.40;99.90;;;;;;5061014;28;20411;-81
2021/03/26 05:39:26;;;;;;;16.70;10.20;;;4.40;99.90;;;;;;5061939;28;20406;-81
2021/03/26 05:42:14;;;;;;;14.90;8.63;;;4.50;99.90;;;;;;5064216;28;20410;-79
2021/03/26 05:45:05;;;;;;;19.70;9.17;;;4.60;99.90;;;;;;5066051;28;20407;-79
2021/03/26 05:48:03;;;;;;;19.80;10.37;;;4.40;99.90;;;;;;5068262;28;20434;-79
2021/03/26 05:50:53;;;;;;;20.20;10.07;;;4.40;99.90;;;;;;5071941;28;20451;-80
2021/03/26 05:53:32;;;;;;;19.73;9.60;;;4.40;99.90;;;;;;5066506;28;20403;-80
2021/03/26 05:56:24;;;;;;;15.07;8.80;;;4.50;99.90;;;;;;5066052;28;20410;-80
2021/03/26 05:59:07;;;;;;;17.27;9.80;;;4.50;99.90;;;;;;5079880;28;20426;-79
2021/03/26 06:01:50;;;;;;;17.57;8.73;;;4.60;99.90;;;;;;5079907;28;20417;-81
2021/03/26 06:04:55;;;;;;;15.13;10.03;;;4.60;99.90;;;;;;5078908;28;20396;-81
2021/03/26 06:07:41;;;;;;;15.73;9.87;;;4.50;99.90;;;;;;5078083;28;20429;-81
2021/03/26 06:10:38;;;;;;;16.80;10.57;;;4.60;99.90;;;;;;5059769;28;20406;-81
2021/03/26 06:13:33;;;;;;;22.67;11.03;;;4.60;99.90;;;;;;5061391;28;20446;-81
2021/03/26 06:16:23;;;;;;;15.60;9.27;;;4.80;99.90;;;;;;5075012;28;20417;-81
2021/03/26 06:19:23;;;;;;;20.90;11.47;;;4.80;99.90;;;;;;5072112;28;20411;-80
2021/03/26 06:22:12;;;;;;;12.80;9.03;;;4.90;99.90;;;;;;5059915;28;20473;-81
2021/03/26 06:24:56;;;;;;;11.37;8.77;;;5.00;99.90;;;;;;5067734;28;20479;-80
2021/03/26 06:27:39;;;;;;;16.53;10.13;;;5.00;99.90;;;;;;5065561;28;20395;-81
2021/03/26 06:30:26;;;;;;;19.50;11.43;;;5.20;99.90;;;;;;5060740;28;20395;-81
2021/03/26 06:33:26;;;;;;;18.73;9.47;;;5.30;99.90;;;;;;5066336;28;20432;-81
2021/03/26 06:36:17;;;;;;;20.03;9.17;;;5.30;99.90;;;;;;5059760;28;20518;-81
2021/03/26 06:39:18;;;;;;;27.33;10.80;;;5.50;99.90;;;;;;5061765;28;20397;-81
2021/03/26 06:42:13;;;;;;;16.20;9.53;;;5.70;99.90;;;;;;5058773;28;20730;-80
2021/03/26 06:44:51;;;;;;;17.13;10.93;;;5.80;99.90;;;;;;5060991;28;20434;-81
2021/03/26 06:47:38;;;;;;;23.67;11.80;;;6.00;99.90;;;;;;5071518;28;20425;-81
2021/03/26 06:50:26;;;;;;;13.37;9.27;;;6.00;99.90;;;;;;5077414;28;20475;-80
2021/03/26 06:53:11;;;;;;;17.27;9.20;;;6.10;99.90;;;;;;5070869;28;20430;-80
2021/03/26 06:56:05;;;;;;;13.93;9.87;;;6.20;99.90;;;;;;5079960;28;20443;-80
2021/03/26 06:59:09;;;;;;;20.60;10.20;;;6.30;99.90;;;;;;5074043;28;20453;-81
2021/03/26 07:02:13;;;;;;;24.13;11.10;;;6.50;99.90;;;;;;5078223;28;20882;-81
2021/03/26 07:05:03;;;;;;;14.87;9.63;;;6.70;99.90;;;;;;5073271;28;20839;-79
2021/03/26 07:07:43;;;;;;;15.80;9.30;;;6.90;99.90;;;;;;5072983;28;20597;-80
2021/03/26 07:10:31;;;;;;;13.57;9.80;;;7.00;99.90;;;;;;5062112;28;20973;-81
2021/03/26 07:13:31;;;;;;;15.73;10.03;;;7.10;99.90;;;;;;5067358;28;20442;-81
2021/03/26 07:16:33;;;;;;;24.30;11.07;;;7.10;99.90;;;;;;5060776;28;20952;-81
2021/03/26 07:19:25;;;;;;;20.43;10.47;;;7.20;99.90;;;;;;5067244;28;20967;-81
2021/03/26 07:22:19;;;;;;;17.90;11.20;;;7.30;99.90;;;;;;5060653;28;20517;-81
2021/03/26 07:25:04;;;;;;;15.93;9.87;;;7.40;99.90;;;;;;5065251;28;20525;-81
2021/03/26 07:27:52;;;;;;;17.57;10.97;;;7.60;99.90;;;;;;5065233;28;20414;-80
2021/03/26 07:30:39;;;;;;;22.20;10.70;;;7.60;99.90;;;;;;5076264;28;20426;-79
2021/03/26 07:33:31;;;;;;;20.00;11.87;;;7.80;99.90;;;;;;5082779;28;20408;-81
2021/03/26 07:36:10;;;;;;;14.67;10.90;;;7.80;99.90;;;;;;5067600;28;20531;-80
2021/03/26 07:39:04;;;;;;;27.13;11.93;;;7.90;99.90;;;;;;5070287;28;20410;-81
2021/03/26 07:42:03;;;;;;;13.33;10.60;;;8.00;99.90;;;;;;5073785;28;20544;-79
2021/03/26 07:44:59;;;;;;;16.07;10.67;;;8.20;99.90;;;;;;5072381;28;20795;-78
2021/03/26 07:47:57;;;;;;;15.60;10.17;;;8.20;99.90;;;;;;5065270;28;20418;-78
2021/03/26 07:50:34;;;;;;;16.70;10.03;;;8.30;99.90;;;;;;5047923;28;20442;-80
2021/03/26 07:53:18;;;;;;;14.70;9.90;;;8.50;99.90;;;;;;5075186;28;20429;-80
2021/03/26 07:56:03;;;;;;;21.90;11.20;;;8.70;99.90;;;;;;5069285;28;20460;-80
2021/03/26 07:58:56;;;;;;;14.17;8.87;;;8.90;99.90;;;;;;5057669;28;20437;-81
2021/03/26 08:01:35;;;;;;;16.33;10.13;;;8.80;99.90;;;;;;5066695;28;20503;-81
2021/03/26 08:04:10;;;;;;;16.90;10.73;;;8.90;99.90;;;;;;5064884;28;20437;-81
2021/03/26 08:07:15;;;;;;;18.03;11.40;;;9.20;99.90;;;;;;5080102;28;20445;-81
2021/03/26 08:10:16;;;;;;;19.13;9.83;;;9.20;99.90;;;;;;5074524;28;20513;-81
2021/03/26 08:13:13;;;;;;;19.83;12.40;;;9.30;99.90;;;;;;5078535;28;20444;-81
2021/03/26 08:16:10;;;;;;;17.37;10.73;;;9.40;99.90;;;;;;5070245;28;20438;-80
2021/03/26 08:18:53;;;;;;;17.80;10.00;;;9.40;99.90;;;;;;5074232;28;20434;-81
2021/03/26 08:21:42;;;;;;;13.73;9.77;;;9.70;99.90;;;;;;5068034;28;20524;-81
2021/03/26 08:24:32;;;;;;;18.13;10.87;;;10.00;99.90;;;;;;5080418;28;20433;-81
2021/03/26 08:27:25;;;;;;;18.50;10.20;;;10.10;99.90;;;;;;5075950;28;20427;-78
2021/03/26 08:30:18;;;;;;;16.60;10.33;;;10.20;99.90;;;;;;5066720;28;20421;-82
2021/03/26 08:33:13;;;;;;;15.40;9.60;;;10.40;99.90;;;;;;5072543;28;20481;-81
2021/03/26 08:36:03;;;;;;;12.53;9.30;;;10.20;99.90;;;;;;5062025;28;20430;-81
2021/03/26 08:38:44;;;;;;;13.67;9.57;;;10.50;99.90;;;;;;5062127;28;20414;-81
2021/03/26 08:41:19;;;;;;;19.67;11.20;;;10.60;99.90;;;;;;5060989;28;20749;-81
2021/03/26 08:43:51;;;;;;;16.60;10.50;;;10.70;99.90;;;;;;5069242;28;20973;-81
2021/03/26 08:46:38;;;;;;;15.97;10.37;;;10.70;99.90;;;;;;5061838;28;20442;-82
2021/03/26 08:49:31;;;;;;;17.70;10.47;;;10.90;99.90;;;;;;5076398;28;20805;-81
2021/03/26 08:52:21;;;;;;;16.57;11.33;;;11.20;99.90;;;;;;5063646;28;20422;-82
2021/03/26 08:55:23;;;;;;;21.13;9.13;;;11.50;99.90;;;;;;5058953;28;20426;-82
2021/03/26 08:58:24;;;;;;;16.20;10.50;;;11.90;99.90;;;;;;5074320;28;20912;-80
2021/03/26 09:01:14;;;;;;;12.00;9.60;;;11.90;99.90;;;;;;5057489;28;20433;-81
2021/03/26 09:04:09;;;;;;;15.60;8.13;;;11.60;99.90;;;;;;5057615;28;20430;-81
2021/03/26 09:07:00;;;;;;;18.67;9.03;;;11.90;99.90;;;;;;5059120;28;20555;-82
2021/03/26 09:09:47;;;;;;;17.60;8.00;;;12.20;99.90;;;;;;5071274;28;20508;-81
2021/03/26 09:12:40;;;;;;;15.13;9.10;;;12.50;99.90;;;;;;5062132;28;20472;-81
2021/03/26 09:15:31;;;;;;;13.20;9.33;;;12.80;99.90;;;;;;5076718;28;20453;-81
2021/03/26 09:18:10;;;;;;;12.43;9.43;;;13.10;99.90;;;;;;5066324;28;20786;-81
2021/03/26 09:20:44;;;;;;;16.27;9.57;;;13.20;99.90;;;;;;5070103;28;20429;-81
2021/03/26 09:23:41;;;;;;;18.17;8.97;;;13.50;99.90;;;;;;5072378;28;20424;-80
2021/03/26 09:26:31;;;;;;;12.50;9.33;;;13.90;99.90;;;;;;5062106;28;20457;-81
2021/03/26 09:29:01;;;;;;;14.10;9.57;;;13.10;99.90;;;;;;5072541;28;20444;-81
2021/03/26 09:31:43;;;;;;;19.07;10.30;;;13.20;99.90;;;;;;5079294;28;20428;-81
2021/03/26 09:34:25;;;;;;;13.07;9.40;;;13.90;99.90;;;;;;5051006;28;20423;-81
2021/03/26 09:37:16;;;;;;;13.73;10.13;;;13.90;99.90;;;;;;5054276;28;20450;-81
2021/03/26 09:39:46;;;;;;;11.80;8.50;;;13.60;99.90;;;;;;5047412;28;20531;-81
2021/03/26 09:42:32;;;;;;;14.97;10.63;;;14.20;99.90;;;;;;5043744;28;20467;-82
2021/03/26 09:45:07;;;;;;;14.23;9.40;;;13.30;99.90;;;;;;5031299;28;20486;-81
2021/03/26 09:48:13;;;;;;;13.10;8.63;;;12.80;99.90;;;;;;5029855;28;20930;-82
2021/03/26 09:50:44;;;;;;;10.90;8.43;;;14.10;99.90;;;;;;5052870;28;20441;-82
2021/03/26 09:53:14;;;;;;;9.97;8.13;;;14.20;99.90;;;;;;5042371;28;20431;-82
2021/03/26 09:55:43;;;;;;;15.73;8.90;;;15.30;99.90;;;;;;5040475;28;20986;-83
2021/03/26 09:58:29;;;;;;;13.87;9.70;;;15.00;99.90;;;;;;5044186;28;20523;-83
2021/03/26 10:01:17;;;;;;;10.37;7.90;;;14.50;99.90;;;;;;5059479;28;20425;-82
2021/03/26 10:03:59;;;;;;;9.23;7.47;;;15.20;99.90;;;;;;5032051;28;20415;-82
2021/03/26 10:06:44;;;;;;;11.43;7.33;;;16.00;99.90;;;;;;5063013;28;20531;-83
2021/03/26 10:12:15;;;;;;;12.50;9.27;;;15.80;99.90;;;;;;5061840;28;20403;-83
2021/03/26 10:14:59;;;;;;;11.57;7.80;;;16.30;99.90;;;;;;5080567;28;20426;-83
2021/03/26 10:17:51;;;;;;;9.67;7.50;;;16.90;99.90;;;;;;5067357;28;20484;-83
2021/03/26 10:20:38;;;;;;;10.73;6.47;;;16.40;99.90;;;;;;5061930;28;20409;-83
2021/03/26 10:23:30;;;;;;;13.00;8.27;;;17.00;99.90;;;;;;5061532;28;20418;-83
2021/03/26 10:26:20;;;;;;;10.83;7.60;;;16.80;99.90;;;;;;5067430;28;20803;-83
2021/03/26 10:28:53;;;;;;;10.77;7.90;;;16.80;99.90;;;;;;5066331;28;20442;-83
2021/03/26 10:31:31;;;;;;;9.07;7.23;;;17.70;99.90;;;;;;5079136;28;20867;-83
2021/03/26 10:34:00;;;;;;;10.83;6.80;;;17.60;99.90;;;;;;5079697;28;20405;-83
2021/03/26 10:36:53;;;;;;;9.73;7.50;;;17.60;99.90;;;;;;5075942;28;20823;-83
2021/03/26 10:39:25;;;;;;;11.50;7.23;;;18.10;99.90;;;;;;5081056;28;20913;-83
2021/03/26 10:42:12;;;;;;;9.10;8.17;;;18.50;99.90;;;;;;5044742;28;20438;-83
2021/03/26 10:45:01;;;;;;;7.60;6.80;;;18.90;99.90;;;;;;5062273;28;20480;-83
2021/03/26 10:47:45;;;;;;;11.70;6.07;;;18.70;99.90;;;;;;5075631;28;20423;-83
2021/03/26 10:50:37;;;;;;;7.63;6.83;;;18.70;97.80;;;;;;5102893;28;20504;-83
2021/03/26 10:53:11;;;;;;;7.30;6.20;;;17.70;99.90;;;;;;5117837;28;20416;-83
2021/03/26 10:56:00;;;;;;;8.83;6.90;;;18.30;99.60;;;;;;5101344;28;21012;-83
2021/03/26 10:58:36;;;;;;;7.90;7.10;;;17.30;99.90;;;;;;5097086;28;20625;-83
2021/03/26 11:01:21;;;;;;;11.23;7.93;;;16.80;99.90;;;;;;5095912;28;20449;-83
2021/03/26 11:03:56;;;;;;;9.13;7.50;;;17.10;99.90;;;;;;5132721;28;20423;-83
2021/03/26 11:06:30;;;;;;;10.87;6.93;;;17.90;99.90;;;;;;5133817;28;20467;-82
2021/03/26 11:09:11;;;;;;;7.57;6.60;;;18.40;98.20;;;;;;5135485;28;20431;-82
2021/03/26 11:11:59;;;;;;;8.83;6.73;;;19.50;97.50;;;;;;5124055;28;20420;-84
2021/03/26 11:14:50;;;;;;;13.60;8.10;;;18.60;97.10;;;;;;5109761;28;20524;-81
2021/03/26 11:17:41;;;;;;;6.67;5.67;;;18.00;98.20;;;;;;5112504;28;20433;-84
2021/03/26 11:20:39;;;;;;;7.13;6.13;;;19.00;95.60;;;;;;5106350;28;20423;-83
2021/03/26 11:23:27;;;;;;;8.70;6.60;;;19.70;94.30;;;;;;5106395;28;20413;-83
2021/03/26 11:26:23;;;;;;;9.70;6.93;;;19.60;92.30;;;;;;5109721;28;20494;-83
2021/03/26 11:29:12;;;;;;;6.30;5.70;;;18.80;91.70;;;;;;5068272;28;20898;-83
2021/03/26 11:31:49;;;;;;;9.30;6.23;;;19.00;92.70;;;;;;5078370;28;20419;-83
2021/03/26 11:34:30;;;;;;;7.80;6.97;;;18.70;93.40;;;;;;5080282;28;20501;-83
2021/03/26 11:37:10;;;;;;;8.27;6.77;;;18.90;91.90;;;;;;5079921;28;20869;-83
2021/03/26 11:39:50;;;;;;;10.17;7.30;;;18.10;93.00;;;;;;5061161;28;20409;-83
2021/03/26 11:42:30;;;;;;;8.37;6.53;;;19.00;92.60;;;;;;5078135;28;20453;-83
2021/03/26 11:45:03;;;;;;;11.20;6.73;;;19.00;91.50;;;;;;5079338;28;20506;-84
2021/03/26 11:47:35;;;;;;;8.73;6.90;;;19.30;91.30;;;;;;5045122;28;20408;-83
2021/03/26 11:50:23;;;;;;;11.77;8.03;;;19.00;91.80;;;;;;5078641;28;20895;-83
2021/03/26 11:53:08;;;;;;;7.77;6.97;;;20.40;90.90;;;;;;5078754;28;20394;-83
2021/03/26 11:55:40;;;;;;;8.53;7.30;;;20.00;89.70;;;;;;5079375;28;20437;-83
2021/03/26 11:58:23;;;;;;;11.10;7.70;;;20.10;90.00;;;;;;5062444;28;20431;-84
2021/03/26 12:00:54;;;;;;;11.13;7.40;;;19.70;88.50;;;;;;5079687;28;20841;-83
2021/03/26 12:03:35;;;;;;;10.80;7.90;;;18.80;90.30;;;;;;5078215;28;20401;-83
2021/03/26 12:06:21;;;;;;;7.00;6.17;;;18.50;91.30;;;;;;5078013;28;20441;-83
2021/03/26 12:09:05;;;;;;;9.43;7.30;;;18.60;91.20;;;;;;5067405;28;20506;-83
2021/03/26 12:11:44;;;;;;;9.93;7.50;;;19.70;90.00;;;;;;5036553;28;20455;-83
2021/03/26 12:14:21;;;;;;;10.93;7.00;;;20.80;89.20;;;;;;5037079;28;20482;-83
2021/03/26 12:17:07;;;;;;;11.10;6.87;;;18.90;89.00;;;;;;5025399;28;20821;-84
2021/03/26 12:19:36;;;;;;;7.80;6.90;;;19.90;88.20;;;;;;5056402;28;20497;-83
2021/03/26 12:22:13;;;;;;;8.90;7.43;;;19.60;87.40;;;;;;5057994;28;20414;-83
2021/03/26 12:24:51;;;;;;;8.60;7.70;;;20.30;85.80;;;;;;5057501;28;20399;-83
2021/03/26 12:27:33;;;;;;;7.03;6.33;;;19.50;86.60;;;;;;5040518;28;20450;-83
2021/03/26 12:30:15;;;;;;;8.03;7.23;;;20.00;86.00;;;;;;5056887;28;20835;-83
2021/03/26 12:33:08;;;;;;;7.70;6.90;;;20.20;85.30;;;;;;5040457;28;20435;-83
2021/03/26 12:35:49;;;;;;;8.00;6.57;;;19.90;85.90;;;;;;5069659;28;20456;-82
2021/03/26 12:38:47;;;;;;;9.90;6.10;;;19.70;87.10;;;;;;5077249;28;20414;-83
2021/03/26 12:41:33;;;;;;;11.73;8.87;;;20.70;85.40;;;;;;5077434;28;20566;-83
2021/03/26 12:44:23;;;;;;;7.90;7.20;;;20.70;82.60;;;;;;5076363;28;20949;-83
2021/03/26 12:47:15;;;;;;;7.43;6.60;;;20.40;84.80;;;;;;5058441;28;20481;-83
2021/03/26 12:50:13;;;;;;;11.90;7.33;;;21.20;82.80;;;;;;5078418;28;20452;-83
2021/03/26 12:52:48;;;;;;;8.10;7.27;;;22.50;78.80;;;;;;5070218;28;20426;-82
2021/03/26 12:55:22;;;;;;;8.57;7.10;;;23.30;75.90;;;;;;5067537;28;20531;-82
2021/03/26 12:58:08;;;;;;;8.47;7.67;;;21.10;77.60;;;;;;5061062;28;20417;-84
2021/03/26 13:01:01;;;;;;;7.70;6.90;;;21.00;79.10;;;;;;5074439;28;20494;-83
2021/03/26 13:03:36;;;;;;;7.80;6.87;;;21.60;79.60;;;;;;5077018;28;20936;-82
2021/03/26 13:06:18;;;;;;;13.30;8.77;;;22.20;77.90;;;;;;5044077;28;20833;-83
2021/03/26 13:08:46;;;;;;;10.50;7.40;;;21.60;75.60;;;;;;5062324;28;20917;-83
2021/03/26 13:11:33;;;;;;;10.27;7.80;;;20.30;79.80;;;;;;5066966;28;20468;-82
2021/03/26 13:14:10;;;;;;;8.70;7.90;;;20.70;80.90;;;;;;5068684;28;20433;-82
2021/03/26 13:16:46;;;;;;;8.60;7.27;;;20.40;77.40;;;;;;5076644;28;20766;-82
2021/03/26 13:19:32;;;;;;;9.63;7.40;;;21.20;78.80;;;;;;5088828;28;20421;-82
2021/03/26 13:22:34;;;;;;;9.63;7.30;;;20.90;77.20;;;;;;5090012;28;20453;-83
2021/03/26 13:25:20;;;;;;;8.70;7.80;;;20.60;78.30;;;;;;5071438;28;20453;-85
2021/03/26 13:28:05;;;;;;;8.93;7.20;;;20.40;77.50;;;;;;5077428;28;20460;-83
2021/03/26 13:30:55;;;;;;;10.73;7.30;;;22.50;74.80;;;;;;5062018;28;20540;-83
2021/03/26 13:33:40;;;;;;;8.60;7.90;;;21.50;76.40;;;;;;5066348;28;20417;-83
2021/03/26 13:36:33;;;;;;;9.60;7.47;;;22.90;73.30;;;;;;5097153;28;20436;-83
2021/03/26 13:39:23;;;;;;;9.43;7.17;;;24.20;70.20;;;;;;5089012;28;20491;-84
2021/03/26 13:42:02;;;;;;;9.03;8.00;;;24.30;66.70;;;;;;5085684;28;20420;-83
2021/03/26 13:44:48;;;;;;;9.43;8.20;;;21.30;67.70;;;;;;5087770;28;20482;-83
2021/03/26 13:47:33;;;;;;;12.13;10.53;;;21.60;72.60;;;;;;5095465;28;20411;-83
2021/03/26 13:50:12;;;;;;;10.80;9.00;;;22.30;70.90;;;;;;5084978;28;20408;-83